sensor_id;sensor_type;location;lat;lon;timestamp;pressure;altitude;pressure_sealevel;temperature;humidity
25650;BME280;13505;45.196;5.696;2022-11-20T05:00:10;99148.13;;;7.29;87.00
25650;BME280;13505;45.196;5.696;2022-11-20T05:05:01;99155.94;;;7.31;86.28
25650;BME280;13505;45.196;5.696;2022-11-20T05:09:51;99150.09;;;7.22;86.27
25650;BME280;13505;45.196;5.696;2022-11-20T05:14:42;99141.13;;;7.30;86.77
25650;BME280;13505;45.196;5.696;2022-11-20T05:19:32;99146.53;;;7.25;87.41
25650;BME280;13505;45.196;5.696;2022-11-20T05:24:22;99150.63;;;7.32;85.70
25650;BME280;13505;45.196;5.696;2022-11-20T05:29:12;99147.34;;;7.25;86.34
25650;BME280;13505;45.196;5.696;2022-11-20T05:34:03;99147.56;;;7.19;87.18
25650;BME280;13505;45.196;5.696;2022-11-20T05:38:53;99153.59;;;7.23;86.02
25650;BME280;13505;45.196;5.696;2022-11-20T05:43:45;99151.81;;;7.23;86.95
25650;BME280;13505;45.196;5.696;2022-11-20T05:48:37;99147.22;;;7.30;86.37
25650;BME280;13505;45.196;5.696;2022-11-20T05:53:28;99144.94;;;7.19;87.54
25650;BME280;13505;45.196;5.696;2022-11-20T05:58:18;99142.41;;;7.16;87.38
25650;BME280;13505;45.196;5.696;2022-11-20T06:03:08;99148.22;;;7.26;86.31
25650;BME280;13505;45.196;5.696;2022-11-20T06:08:00;99152.59;;;7.25;85.29
25650;BME280;13505;45.196;5.696;2022-11-20T06:12:50;99144.22;;;7.14;86.29
25650;BME280;13505;45.196;5.696;2022-11-20T06:17:41;99146.91;;;7.12;85.20
25650;BME280;13505;45.196;5.696;2022-11-20T06:22:32;99146.66;;;7.20;85.33
25650;BME280;13505;45.196;5.696;2022-11-20T06:27:22;99149.69;;;7.08;85.48
25650;BME280;13505;45.196;5.696;2022-11-20T06:32:13;99147.63;;;7.18;84.00
25650;BME280;13505;45.196;5.696;2022-11-20T06:37:03;99163.25;;;7.21;84.54
25650;BME280;13505;45.196;5.696;2022-11-20T06:41:53;99150.34;;;7.15;83.29
25650;BME280;13505;45.196;5.696;2022-11-20T06:46:44;99156.78;;;7.04;84.42
25650;BME280;13505;45.196;5.696;2022-11-20T06:51:34;99166.41;;;7.04;84.08
25650;BME280;13505;45.196;5.696;2022-11-20T06:56:24;99170.34;;;6.90;85.13
25650;BME280;13505;45.196;5.696;2022-11-20T07:01:15;99170.63;;;6.81;86.30
25650;BME280;13505;45.196;5.696;2022-11-20T07:06:06;99175.59;;;6.60;88.28
25650;BME280;13505;45.196;5.696;2022-11-20T07:10:58;99182.50;;;6.63;87.12
25650;BME280;13505;45.196;5.696;2022-11-20T07:15:49;99186.53;;;6.45;87.49
25650;BME280;13505;45.196;5.696;2022-11-20T07:20:39;99187.16;;;6.53;87.12
25650;BME280;13505;45.196;5.696;2022-11-20T07:25:30;99201.09;;;6.55;87.66
25650;BME280;13505;45.196;5.696;2022-11-20T07:30:20;99205.97;;;6.67;86.93
25650;BME280;13505;45.196;5.696;2022-11-20T07:35:10;99204.25;;;6.66;87.09
25650;BME280;13505;45.196;5.696;2022-11-20T07:40:01;99205.56;;;6.81;86.52
25650;BME280;13505;45.196;5.696;2022-11-20T07:44:51;99214.44;;;7.06;85.84
25650;BME280;13505;45.196;5.696;2022-11-20T07:49:41;99218.16;;;7.27;85.59
25650;BME280;13505;45.196;5.696;2022-11-20T07:54:32;99208.91;;;7.44;85.06
25650;BME280;13505;45.196;5.696;2022-11-20T07:59:22;99208.50;;;7.56;85.45
25650;BME280;13505;45.196;5.696;2022-11-20T08:04:12;99205.06;;;7.79;83.89
25650;BME280;13505;45.196;5.696;2022-11-20T08:09:04;99212.06;;;8.06;82.28
25650;BME280;13505;45.196;5.696;2022-11-20T08:13:55;99202.84;;;8.19;81.62
25650;BME280;13505;45.196;5.696;2022-11-20T08:19:04;99217.72;;;8.44;80.65
25650;BME280;13505;45.196;5.696;2022-11-20T08:23:54;99210.22;;;8.59;78.62
25650;BME280;13505;45.196;5.696;2022-11-20T08:28:44;99214.75;;;8.79;78.03
25650;BME280;13505;45.196;5.696;2022-11-20T08:33:35;99212.47;;;8.92;77.62
25650;BME280;13505;45.196;5.696;2022-11-20T08:38:25;99220.34;;;9.16;75.54
25650;BME280;13505;45.196;5.696;2022-11-20T08:43:15;99207.25;;;9.37;74.89
25650;BME280;13505;45.196;5.696;2022-11-20T08:48:06;99210.84;;;9.56;74.06
25650;BME280;13505;45.196;5.696;2022-11-20T08:53:02;99207.75;;;9.67;74.00
25650;BME280;13505;45.196;5.696;2022-11-20T08:57:52;99206.09;;;9.64;73.06
25650;BME280;13505;45.196;5.696;2022-11-20T09:02:43;99207.50;;;9.73;72.93
25650;BME280;13505;45.196;5.696;2022-11-20T09:07:33;99212.41;;;9.83;72.29
25650;BME280;13505;45.196;5.696;2022-11-20T09:12:23;99206.00;;;9.88;72.50
25650;BME280;13505;45.196;5.696;2022-11-20T09:17:13;99216.34;;;9.93;72.82
25650;BME280;13505;45.196;5.696;2022-11-20T09:22:05;99219.28;;;10.06;72.99
25650;BME280;13505;45.196;5.696;2022-11-20T09:26:55;99219.97;;;10.11;71.19
25650;BME280;13505;45.196;5.696;2022-11-20T09:31:45;99231.69;;;10.25;71.13
25650;BME280;13505;45.196;5.696;2022-11-20T09:36:36;99236.59;;;10.32;72.72
25650;BME280;13505;45.196;5.696;2022-11-20T09:56:25;99240.97;;;10.54;71.07
25650;BME280;13505;45.196;5.696;2022-11-20T10:01:21;99245.91;;;10.62;71.92
25650;BME280;13505;45.196;5.696;2022-11-20T10:06:17;99245.06;;;10.81;71.20
25650;BME280;13505;45.196;5.696;2022-11-20T10:11:28;99239.56;;;10.85;69.39
25650;BME280;13505;45.196;5.696;2022-11-20T10:31:38;99259.53;;;11.66;66.25
25650;BME280;13505;45.196;5.696;2022-11-20T10:36:36;99254.09;;;11.69;64.85
25650;BME280;13505;45.196;5.696;2022-11-20T10:41:40;99266.31;;;11.35;65.27
25650;BME280;13505;45.196;5.696;2022-11-20T10:46:39;99266.63;;;11.10;65.25
25650;BME280;13505;45.196;5.696;2022-11-20T10:56:52;99263.09;;;11.09;67.21
25650;BME280;13505;45.196;5.696;2022-11-20T11:01:43;99250.63;;;11.13;66.34
25650;BME280;13505;45.196;5.696;2022-11-20T11:11:33;99254.72;;;11.57;64.18
25650;BME280;13505;45.196;5.696;2022-11-20T11:16:25;99260.88;;;11.38;65.02
25650;BME280;13505;45.196;5.696;2022-11-20T11:21:26;99247.88;;;11.34;63.66
25650;BME280;13505;45.196;5.696;2022-11-20T11:26:22;99225.44;;;11.79;63.37
25650;BME280;13505;45.196;5.696;2022-11-20T11:31:22;99215.72;;;12.33;59.87
25650;BME280;13505;45.196;5.696;2022-11-20T11:36:20;99192.72;;;12.67;56.72
25650;BME280;13505;45.196;5.696;2022-11-20T11:41:23;99187.09;;;12.23;55.42
25650;BME280;13505;45.196;5.696;2022-11-20T11:46:32;99182.41;;;12.62;56.58
25650;BME280;13505;45.196;5.696;2022-11-20T11:51:26;99164.91;;;12.60;56.56
25650;BME280;13505;45.196;5.696;2022-11-20T11:56:19;99159.78;;;12.73;54.76
25650;BME280;13505;45.196;5.696;2022-11-20T12:06:32;99136.72;;;13.23;53.39
25650;BME280;13505;45.196;5.696;2022-11-20T12:16:18;99129.31;;;12.97;52.92
25650;BME280;13505;45.196;5.696;2022-11-20T12:37:15;99089.34;;;13.02;49.32
25650;BME280;13505;45.196;5.696;2022-11-20T12:48:07;99061.72;;;12.44;50.60
25650;BME280;13505;45.196;5.696;2022-11-20T12:53:11;99047.81;;;12.72;50.16
25650;BME280;13505;45.196;5.696;2022-11-20T12:58:24;99035.31;;;12.74;50.81
25650;BME280;13505;45.196;5.696;2022-11-20T13:03:44;99031.25;;;12.68;50.48
25650;BME280;13505;45.196;5.696;2022-11-20T13:08:40;99041.75;;;12.70;50.14
25650;BME280;13505;45.196;5.696;2022-11-20T13:18:52;99045.50;;;12.50;50.41
25650;BME280;13505;45.196;5.696;2022-11-20T13:23:43;99044.91;;;12.28;52.82
25650;BME280;13505;45.196;5.696;2022-11-20T13:28:34;99037.66;;;12.32;52.07
25650;BME280;13505;45.196;5.696;2022-11-20T13:33:31;99042.16;;;12.14;52.96
25650;BME280;13505;45.196;5.696;2022-11-20T13:38:22;99060.28;;;11.70;54.07
25650;BME280;13505;45.196;5.696;2022-11-20T13:48:21;99045.63;;;11.98;50.47
25650;BME280;13505;45.196;5.696;2022-11-20T13:58:44;99049.69;;;12.38;51.93
25650;BME280;13505;45.196;5.696;2022-11-20T14:03:41;99052.25;;;12.55;52.03
25650;BME280;13505;45.196;5.696;2022-11-20T14:08:46;99045.88;;;12.44;51.49
25650;BME280;13505;45.196;5.696;2022-11-20T14:13:36;99054.13;;;12.21;50.79
25650;BME280;13505;45.196;5.696;2022-11-20T14:18:27;99042.59;;;12.06;52.86
25650;BME280;13505;45.196;5.696;2022-11-20T14:23:26;99038.88;;;11.93;51.76
25650;BME280;13505;45.196;5.696;2022-11-20T14:28:25;99041.31;;;11.80;52.60
25650;BME280;13505;45.196;5.696;2022-11-20T14:33:16;99035.69;;;11.70;51.85
25650;BME280;13505;45.196;5.696;2022-11-20T14:38:09;99050.94;;;11.47;53.74
25650;BME280;13505;45.196;5.696;2022-11-20T14:43:16;99051.72;;;11.31;53.37
25650;BME280;13505;45.196;5.696;2022-11-20T14:48:09;99034.09;;;11.14;53.80
25650;BME280;13505;45.196;5.696;2022-11-20T14:53:01;99029.81;;;10.94;55.46
25650;BME280;13505;45.196;5.696;2022-11-20T14:57:56;99012.31;;;10.74;57.81
25650;BME280;13505;45.196;5.696;2022-11-20T15:02:49;99020.34;;;10.53;59.91
25650;BME280;13505;45.196;5.696;2022-11-20T15:07:42;99025.22;;;10.43;60.27
25650;BME280;13505;45.196;5.696;2022-11-20T15:12:38;99039.19;;;10.26;62.28
25650;BME280;13505;45.196;5.696;2022-11-20T15:17:30;99052.63;;;10.20;61.46
25650;BME280;13505;45.196;5.696;2022-11-20T15:22:21;99059.75;;;10.18;60.42
25650;BME280;13505;45.196;5.696;2022-11-20T15:27:11;99052.78;;;10.17;60.62
25650;BME280;13505;45.196;5.696;2022-11-20T15:32:02;99048.50;;;10.14;61.63
25650;BME280;13505;45.196;5.696;2022-11-20T15:36:53;99059.75;;;10.18;62.59
25650;BME280;13505;45.196;5.696;2022-11-20T15:41:44;99053.50;;;10.40;62.95
25650;BME280;13505;45.196;5.696;2022-11-20T15:46:42;99060.34;;;10.44;61.46
25650;BME280;13505;45.196;5.696;2022-11-20T15:51:37;99063.34;;;10.17;62.15
25650;BME280;13505;45.196;5.696;2022-11-20T15:56:27;99075.00;;;10.11;61.59
25650;BME280;13505;45.196;5.696;2022-11-20T16:01:20;99057.03;;;10.00;62.26
25650;BME280;13505;45.196;5.696;2022-11-20T16:06:11;99071.81;;;10.04;68.63
25650;BME280;13505;45.196;5.696;2022-11-20T16:11:01;99061.16;;;9.87;65.33
25650;BME280;13505;45.196;5.696;2022-11-20T16:15:55;99071.53;;;9.71;68.18
25650;BME280;13505;45.196;5.696;2022-11-20T16:20:50;99093.53;;;10.10;75.19
25650;BME280;13505;45.196;5.696;2022-11-20T16:25:41;99119.06;;;9.88;67.59
25650;BME280;13505;45.196;5.696;2022-11-20T16:30:32;99122.09;;;9.79;66.96
25650;BME280;13505;45.196;5.696;2022-11-20T16:35:25;99111.81;;;9.73;67.25
25650;BME280;13505;45.196;5.696;2022-11-20T16:40:16;99117.88;;;9.75;68.88
25650;BME280;13505;45.196;5.696;2022-11-20T16:45:06;99130.44;;;9.68;68.52
25650;BME280;13505;45.196;5.696;2022-11-20T16:49:56;99129.47;;;9.71;68.44
25650;BME280;13505;45.196;5.696;2022-11-20T16:54:47;99145.88;;;9.77;67.85
25650;BME280;13505;45.196;5.696;2022-11-20T16:59:37;99160.41;;;9.86;68.63
25650;BME280;13505;45.196;5.696;2022-11-20T17:04:27;99167.66;;;9.81;68.07
25650;BME280;13505;45.196;5.696;2022-11-20T17:09:18;99183.59;;;9.78;68.34
25650;BME280;13505;45.196;5.696;2022-11-20T17:14:10;99186.25;;;9.78;67.84
25650;BME280;13505;45.196;5.696;2022-11-20T17:19:00;99188.53;;;9.86;66.83
25650;BME280;13505;45.196;5.696;2022-11-20T17:23:52;99189.28;;;9.89;66.00
25650;BME280;13505;45.196;5.696;2022-11-20T17:28:44;99196.25;;;9.90;65.77
25650;BME280;13505;45.196;5.696;2022-11-20T17:33:36;99200.13;;;10.02;70.25
25650;BME280;13505;45.196;5.696;2022-11-20T17:38:27;99202.16;;;9.96;67.70
25650;BME280;13505;45.196;5.696;2022-11-20T17:48:17;99228.84;;;10.09;70.97
25650;BME280;13505;45.196;5.696;2022-11-20T17:53:08;99236.63;;;9.91;70.31
25650;BME280;13505;45.196;5.696;2022-11-20T17:57:58;99252.00;;;9.80;71.76
25650;BME280;13505;45.196;5.696;2022-11-20T18:02:51;99254.06;;;9.73;71.67
25650;BME280;13505;45.196;5.696;2022-11-20T18:07:42;99268.22;;;9.48;69.73
25650;BME280;13505;45.196;5.696;2022-11-20T18:12:32;99275.25;;;9.47;67.87
25650;BME280;13505;45.196;5.696;2022-11-20T18:17:23;99261.91;;;9.30;67.46
25650;BME280;13505;45.196;5.696;2022-11-20T18:22:15;99273.81;;;9.40;67.70
25650;BME280;13505;45.196;5.696;2022-11-20T18:27:07;99275.63;;;9.38;70.01
25650;BME280;13505;45.196;5.696;2022-11-20T18:31:58;99276.63;;;9.35;71.40
25650;BME280;13505;45.196;5.696;2022-11-20T18:36:49;99285.13;;;9.42;69.58
25650;BME280;13505;45.196;5.696;2022-11-20T18:41:40;99294.16;;;9.35;71.34
25650;BME280;13505;45.196;5.696;2022-11-20T18:46:49;99285.84;;;9.24;74.49
25650;BME280;13505;45.196;5.696;2022-11-20T18:51:40;99268.50;;;9.18;75.99
25650;BME280;13505;45.196;5.696;2022-11-20T18:56:33;99273.91;;;9.15;76.71
25650;BME280;13505;45.196;5.696;2022-11-20T19:01:26;99272.75;;;9.87;83.66
25650;BME280;13505;45.196;5.696;2022-11-20T19:06:17;99264.88;;;10.29;84.71
25650;BME280;13505;45.196;5.696;2022-11-20T19:11:09;99270.97;;;9.67;76.99
25650;BME280;13505;45.196;5.696;2022-11-20T19:16:03;99276.53;;;9.37;76.29
25650;BME280;13505;45.196;5.696;2022-11-20T19:20:54;99282.28;;;9.25;76.29
25650;BME280;13505;45.196;5.696;2022-11-20T19:25:44;99283.19;;;9.24;76.78
25650;BME280;13505;45.196;5.696;2022-11-20T19:30:34;99277.38;;;9.15;76.73
25650;BME280;13505;45.196;5.696;2022-11-20T19:35:24;99291.75;;;9.06;78.47
25650;BME280;13505;45.196;5.696;2022-11-20T19:40:15;99304.16;;;9.03;79.75
25650;BME280;13505;45.196;5.696;2022-11-20T19:45:06;99292.84;;;9.01;81.10
25650;BME280;13505;45.196;5.696;2022-11-20T19:49:56;99294.69;;;8.99;80.16
25650;BME280;13505;45.196;5.696;2022-11-20T19:54:47;99295.50;;;8.99;80.78
25650;BME280;13505;45.196;5.696;2022-11-20T19:59:37;99292.75;;;9.02;79.91
25650;BME280;13505;45.196;5.696;2022-11-20T20:04:27;99296.38;;;9.00;79.80
25650;BME280;13505;45.196;5.696;2022-11-20T20:09:18;99297.13;;;9.03;79.91
25650;BME280;13505;45.196;5.696;2022-11-20T20:14:12;99289.28;;;9.02;80.32
25650;BME280;13505;45.196;5.696;2022-11-20T20:19:04;99291.03;;;9.01;79.57
25650;BME280;13505;45.196;5.696;2022-11-20T20:23:55;99294.34;;;9.30;83.54
25650;BME280;13505;45.196;5.696;2022-11-20T20:28:46;99290.47;;;9.17;81.15
25650;BME280;13505;45.196;5.696;2022-11-20T20:33:37;99289.38;;;9.23;83.79
25650;BME280;13505;45.196;5.696;2022-11-20T20:38:28;99297.94;;;9.95;86.40
25650;BME280;13505;45.196;5.696;2022-11-20T20:43:18;99308.72;;;9.68;79.58
25650;BME280;13505;45.196;5.696;2022-11-20T20:48:08;99325.88;;;9.32;77.87
25650;BME280;13505;45.196;5.696;2022-11-20T20:52:59;99346.03;;;9.09;82.02
25650;BME280;13505;45.196;5.696;2022-11-20T20:57:49;99345.16;;;9.08;81.19
25650;BME280;13505;45.196;5.696;2022-11-20T21:02:39;99346.25;;;9.03;82.54
25650;BME280;13505;45.196;5.696;2022-11-20T21:07:30;99348.25;;;8.96;84.25
25650;BME280;13505;45.196;5.696;2022-11-20T21:12:20;99351.19;;;8.88;85.59
25650;BME280;13505;45.196;5.696;2022-11-20T21:17:10;99359.28;;;8.82;86.98
25650;BME280;13505;45.196;5.696;2022-11-20T21:22:01;99376.72;;;8.85;88.23
25650;BME280;13505;45.196;5.696;2022-11-20T21:26:54;99388.72;;;8.92;88.34
25650;BME280;13505;45.196;5.696;2022-11-20T21:31:45;99381.81;;;8.89;86.94
25650;BME280;13505;45.196;5.696;2022-11-20T21:36:36;99368.88;;;8.83;86.45
25650;BME280;13505;45.196;5.696;2022-11-20T21:41:28;99388.31;;;8.79;87.13
25650;BME280;13505;45.196;5.696;2022-11-20T21:46:22;99385.75;;;8.77;87.84
25650;BME280;13505;45.196;5.696;2022-11-20T21:51:17;99383.22;;;8.74;87.95
25650;BME280;13505;45.196;5.696;2022-11-20T21:56:09;99383.44;;;8.68;89.25
25650;BME280;13505;45.196;5.696;2022-11-20T22:01:09;99375.63;;;8.67;89.20
25650;BME280;13505;45.196;5.696;2022-11-20T22:06:00;99384.47;;;8.64;88.28
25650;BME280;13505;45.196;5.696;2022-11-20T22:10:58;99391.31;;;8.68;88.56
25650;BME280;13505;45.196;5.696;2022-11-20T22:15:49;99403.66;;;8.66;88.13
25650;BME280;13505;45.196;5.696;2022-11-20T22:20:40;99399.38;;;8.63;88.74
25650;BME280;13505;45.196;5.696;2022-11-20T22:25:34;99382.91;;;8.58;89.78
25650;BME280;13505;45.196;5.696;2022-11-20T22:30:24;99382.22;;;8.24;89.74
25650;BME280;13505;45.196;5.696;2022-11-20T22:35:15;99362.34;;;8.43;90.15
25650;BME280;13505;45.196;5.696;2022-11-20T22:40:06;99381.63;;;8.16;91.23
25650;BME280;13505;45.196;5.696;2022-11-20T22:44:57;99384.81;;;8.26;92.00
25650;BME280;13505;45.196;5.696;2022-11-20T22:49:47;99381.31;;;7.99;92.31
25650;BME280;13505;45.196;5.696;2022-11-20T22:54:37;99378.50;;;7.76;93.95
25650;BME280;13505;45.196;5.696;2022-11-20T22:59:27;99389.72;;;7.81;93.21
